createdAt,value
2018-03-27T00:00:39.850Z,29.60
2018-03-27T00:03:08.030Z,30.33
2018-03-27T00:05:36.164Z,29.00
2018-03-27T00:08:04.287Z,27.87
2018-03-27T00:10:33.234Z,27.93
2018-03-27T00:13:01.382Z,26.97
2018-03-27T00:15:29.532Z,26.40
2018-03-27T00:17:58.477Z,27.50
2018-03-27T00:20:26.631Z,27.47
2018-03-27T00:22:54.832Z,26.40
2018-03-27T00:25:23.018Z,28.97
2018-03-27T00:28:03.191Z,26.53
2018-03-27T00:30:43.766Z,27.27
2018-03-27T00:33:23.898Z,28.13
2018-03-27T00:36:04.680Z,25.97
2018-03-27T00:38:45.620Z,28.13
2018-03-27T00:41:34.588Z,27.53
2018-03-27T00:44:02.743Z,25.30
2018-03-27T00:46:30.881Z,28.17
2018-03-27T00:48:59.071Z,26.03
2018-03-27T00:51:27.245Z,26.63
2018-03-27T00:53:55.601Z,26.57
2018-03-27T00:56:23.840Z,26.50
2018-03-27T00:58:51.969Z,28.47
2018-03-27T01:01:20.145Z,32.05
2018-03-27T01:03:48.310Z,31.43
2018-03-27T01:06:16.456Z,29.20
2018-03-27T01:08:45.365Z,31.07
2018-03-27T01:11:13.526Z,33.63
2018-03-27T01:13:42.429Z,32.37
2018-03-27T01:16:10.920Z,32.07
2018-03-27T01:18:39.078Z,33.20
2018-03-27T01:21:07.218Z,32.80
2018-03-27T01:23:35.835Z,31.07
2018-03-27T01:26:03.980Z,30.80
2018-03-27T01:28:32.253Z,30.63
2018-03-27T01:31:00.549Z,28.80
2018-03-27T01:33:29.615Z,29.07
2018-03-27T01:35:57.767Z,29.77
2018-03-27T01:38:25.958Z,31.67
2018-03-27T01:40:54.926Z,30.57
2018-03-27T01:43:23.077Z,30.63
2018-03-27T01:45:51.314Z,28.77
2018-03-27T01:48:19.598Z,30.63
2018-03-27T01:50:47.740Z,29.90
2018-03-27T01:53:15.880Z,30.10
2018-03-27T01:55:44.053Z,29.33
2018-03-27T01:58:12.196Z,29.43
2018-03-27T02:00:41.114Z,30.17
2018-03-27T02:03:09.474Z,30.10
2018-03-27T02:05:38.613Z,32.23
2018-03-27T02:08:07.046Z,30.73
2018-03-27T02:10:35.471Z,32.90
2018-03-27T02:13:09.438Z,35.80
2018-03-27T02:15:44.241Z,36.00
2018-03-27T02:18:18.410Z,36.23
2018-03-27T02:20:52.681Z,34.93
2018-03-27T02:23:20.813Z,33.20
2018-03-27T02:25:48.964Z,32.70
2018-03-27T02:28:17.199Z,35.93
2018-03-27T02:30:45.923Z,38.17
2018-03-27T02:33:14.064Z,38.57
2018-03-27T02:35:42.214Z,39.20
2018-03-27T02:38:10.354Z,37.37
2018-03-27T02:40:38.601Z,35.93
2018-03-27T02:43:07.532Z,34.20
2018-03-27T02:45:35.729Z,34.50
2018-03-27T02:48:03.870Z,32.67
2018-03-27T02:50:32.092Z,32.40
2018-03-27T02:53:01.744Z,33.90
2018-03-27T02:55:29.938Z,34.87
2018-03-27T02:57:58.178Z,35.37
2018-03-27T03:00:26.376Z,35.37
2018-03-27T03:02:54.652Z,35.13
2018-03-27T03:05:22.826Z,37.63
2018-03-27T03:07:50.985Z,36.87
2018-03-27T03:10:19.443Z,36.93
2018-03-27T03:12:47.687Z,37.90
2018-03-27T03:15:15.878Z,37.57
2018-03-27T03:17:44.280Z,37.73
2018-03-27T03:20:13.344Z,37.40
2018-03-27T03:22:41.501Z,37.60
2018-03-27T03:25:09.663Z,37.27
2018-03-27T03:27:37.822Z,38.53
2018-03-27T03:30:06.086Z,39.80
2018-03-27T03:32:34.338Z,39.93
2018-03-27T03:35:03.308Z,40.37
2018-03-27T03:37:31.442Z,40.07
2018-03-27T03:39:59.612Z,39.90
2018-03-27T03:42:27.759Z,42.10
2018-03-27T03:44:56.686Z,40.83
2018-03-27T03:47:24.823Z,39.53
2018-03-27T03:49:53.744Z,41.80
2018-03-27T03:52:21.890Z,41.30
2018-03-27T03:54:50.901Z,40.37
2018-03-27T03:57:19.109Z,40.10
2018-03-27T03:59:47.306Z,44.40
2018-03-27T04:02:15.710Z,46.43
2018-03-27T04:04:44.990Z,46.50
2018-03-27T04:07:13.137Z,44.47
2018-03-27T04:09:41.369Z,42.53
2018-03-27T04:12:09.719Z,43.37
2018-03-27T04:14:37.870Z,43.93
2018-03-27T04:17:06.027Z,41.07
2018-03-27T04:19:34.189Z,38.83
2018-03-27T04:22:02.555Z,39.20
2018-03-27T04:24:31.656Z,38.83
2018-03-27T04:26:59.869Z,35.40
2018-03-27T04:29:28.209Z,35.53
2018-03-27T04:31:56.726Z,33.07
2018-03-27T04:34:24.970Z,31.33
2018-03-27T04:36:53.180Z,30.67
2018-03-27T04:39:21.334Z,30.33
2018-03-27T04:41:49.498Z,31.90
2018-03-27T04:44:17.650Z,29.80
2018-03-27T04:46:46.028Z,31.43
2018-03-27T04:49:14.197Z,29.63
2018-03-27T04:51:42.406Z,29.60
2018-03-27T04:54:11.059Z,29.20
2018-03-27T04:56:39.231Z,28.73
2018-03-27T04:59:07.381Z,31.07
2018-03-27T05:01:35.540Z,29.80
2018-03-27T05:04:03.700Z,28.27
2018-03-27T05:06:32.150Z,27.03
2018-03-27T05:09:00.328Z,28.17
2018-03-27T05:11:28.504Z,28.50
2018-03-27T05:13:56.823Z,28.70
2018-03-27T05:16:25.063Z,27.37
2018-03-27T05:18:53.503Z,27.97
2018-03-27T05:21:21.641Z,26.90
2018-03-27T05:23:49.781Z,28.00
2018-03-27T05:26:18.021Z,27.50
2018-03-27T05:28:46.967Z,27.03
2018-03-27T05:31:15.334Z,26.87
2018-03-27T05:33:43.586Z,27.33
2018-03-27T05:36:11.784Z,30.67
2018-03-27T05:38:40.343Z,26.43
2018-03-27T05:41:09.348Z,33.97
2018-03-27T05:43:37.655Z,27.90
2018-03-27T05:46:05.818Z,27.20
2018-03-27T05:48:34.137Z,26.20
2018-03-27T05:51:02.488Z,26.20
2018-03-27T05:53:30.629Z,26.57
2018-03-27T05:55:58.926Z,25.87
2018-03-27T05:58:27.197Z,25.50
2018-03-27T06:00:55.334Z,25.80
2018-03-27T06:03:23.511Z,24.37
2018-03-27T06:05:51.694Z,24.93
2018-03-27T06:08:19.858Z,25.40
2018-03-27T06:10:48.031Z,24.63
2018-03-27T06:13:16.296Z,26.07
2018-03-27T06:15:45.208Z,26.60
2018-03-27T06:18:13.383Z,25.87
2018-03-27T06:20:41.556Z,25.80
2018-03-27T06:23:09.687Z,26.13
2018-03-27T06:25:37.959Z,27.37
2018-03-27T06:28:06.083Z,25.67
2018-03-27T06:30:34.255Z,25.70
2018-03-27T06:33:02.708Z,25.87
2018-03-27T06:35:31.616Z,26.00
2018-03-27T06:37:59.756Z,26.17
2018-03-27T06:40:28.073Z,25.23
2018-03-27T06:42:56.335Z,26.20
2018-03-27T06:45:24.475Z,25.93
2018-03-27T06:47:52.679Z,26.37
2018-03-27T06:50:20.996Z,24.97
2018-03-27T06:52:49.152Z,25.50
2018-03-27T06:55:17.350Z,25.83
2018-03-27T06:57:45.482Z,26.17
2018-03-27T07:00:13.671Z,26.30
2018-03-27T07:05:16.448Z,25.10
2018-03-27T07:07:46.136Z,27.47
2018-03-27T07:10:14.261Z,26.57
2018-03-27T07:12:42.403Z,26.73
2018-03-27T07:15:11.383Z,27.27
2018-03-27T07:17:39.489Z,27.60
2018-03-27T07:20:07.656Z,27.03
2018-03-27T07:22:36.392Z,27.30
2018-03-27T07:25:04.549Z,28.70
2018-03-27T07:27:32.706Z,28.67
2018-03-27T07:30:01.355Z,28.60
2018-03-27T07:32:29.502Z,27.70
2018-03-27T07:34:57.634Z,27.30
2018-03-27T07:37:25.846Z,27.43
2018-03-27T07:39:54.141Z,27.27
2018-03-27T07:42:22.436Z,27.77
2018-03-27T07:44:50.726Z,27.43
2018-03-27T07:47:18.871Z,27.00
2018-03-27T07:49:47.771Z,28.03
2018-03-27T07:52:16.697Z,27.33
2018-03-27T07:54:44.825Z,28.73
2018-03-27T07:57:13.879Z,27.43
2018-03-27T07:59:42.243Z,27.67
2018-03-27T08:02:10.490Z,28.37
2018-03-27T08:04:39.577Z,27.57
2018-03-27T08:07:08.487Z,27.53
2018-03-27T08:09:36.696Z,28.03
2018-03-27T08:12:04.923Z,26.40
2018-03-27T08:14:33.849Z,26.83
2018-03-27T08:17:01.997Z,26.97
2018-03-27T08:19:30.158Z,27.83
2018-03-27T08:21:59.131Z,27.97
2018-03-27T08:24:27.390Z,27.03
2018-03-27T08:26:55.571Z,27.13
2018-03-27T08:29:23.927Z,28.17
2018-03-27T08:31:52.152Z,27.47
2018-03-27T08:34:21.850Z,28.00
2018-03-27T08:36:50.015Z,26.93
2018-03-27T08:39:18.189Z,26.53
2018-03-27T08:41:46.344Z,25.93
2018-03-27T08:44:14.505Z,26.90
2018-03-27T08:46:42.650Z,26.60
2018-03-27T08:49:10.918Z,26.27
2018-03-27T08:51:39.242Z,26.63
2018-03-27T08:54:08.106Z,25.83
2018-03-27T08:56:36.247Z,24.90
2018-03-27T08:59:04.898Z,27.13
2018-03-27T09:01:33.133Z,24.87
2018-03-27T09:04:01.424Z,25.40
2018-03-27T09:06:29.686Z,25.50
2018-03-27T09:08:58.009Z,26.20
2018-03-27T09:11:26.159Z,26.83
2018-03-27T09:13:54.433Z,26.67
2018-03-27T09:16:22.649Z,26.07
2018-03-27T09:18:51.733Z,27.30
2018-03-27T09:21:19.987Z,26.57
2018-03-27T09:23:48.407Z,25.87
2018-03-27T09:26:17.475Z,26.83
2018-03-27T09:28:45.716Z,25.53
2018-03-27T09:31:15.036Z,26.43
2018-03-27T09:33:43.287Z,25.97
2018-03-27T09:36:11.645Z,26.10
2018-03-27T09:38:39.814Z,26.07
2018-03-27T09:41:07.959Z,26.13
2018-03-27T09:43:36.905Z,25.97
2018-03-27T09:46:05.383Z,26.93
2018-03-27T09:48:33.551Z,26.87
2018-03-27T09:51:02.170Z,29.07
2018-03-27T09:53:30.328Z,27.73
2018-03-27T09:55:58.477Z,26.70
2018-03-27T09:58:26.709Z,26.53
2018-03-27T10:00:54.920Z,28.00
2018-03-27T10:03:23.189Z,27.70
2018-03-27T10:05:51.402Z,27.03
2018-03-27T10:08:19.603Z,26.63
2018-03-27T10:10:47.913Z,26.07
2018-03-27T10:13:16.943Z,25.53
2018-03-27T10:15:45.107Z,22.90
2018-03-27T10:18:14.148Z,20.73
2018-03-27T10:20:42.418Z,21.57
2018-03-27T10:23:10.729Z,22.40
2018-03-27T10:25:38.862Z,18.73
2018-03-27T10:28:07.037Z,20.17
2018-03-27T10:30:35.353Z,20.83
2018-03-27T10:33:04.272Z,21.40
2018-03-27T10:35:32.431Z,20.20
2018-03-27T10:38:00.606Z,19.43
2018-03-27T10:40:28.778Z,18.53
2018-03-27T10:42:57.093Z,19.20
2018-03-27T10:45:26.053Z,20.37
2018-03-27T10:47:54.214Z,18.57
2018-03-27T10:50:23.143Z,20.50
2018-03-27T10:52:51.418Z,19.50
2018-03-27T10:55:20.375Z,20.07
2018-03-27T10:57:49.275Z,20.23
2018-03-27T11:00:17.560Z,19.60
2018-03-27T11:02:45.714Z,19.57
2018-03-27T11:05:14.630Z,18.93
2018-03-27T11:07:42.768Z,19.17
2018-03-27T11:10:10.921Z,20.07
2018-03-27T11:12:39.081Z,20.77
2018-03-27T11:15:07.236Z,19.63
2018-03-27T11:17:35.421Z,18.63
2018-03-27T11:20:03.775Z,18.20
2018-03-27T11:22:33.012Z,19.87
2018-03-27T11:25:01.174Z,19.80
2018-03-27T11:27:29.442Z,18.37
2018-03-27T11:29:57.679Z,19.17
2018-03-27T11:32:26.575Z,18.37
2018-03-27T11:34:54.740Z,19.70
2018-03-27T11:37:23.646Z,19.53
2018-03-27T11:39:51.809Z,19.00
2018-03-27T11:42:19.977Z,18.17
2018-03-27T11:44:48.917Z,18.87
2018-03-27T11:47:17.071Z,18.13
2018-03-27T11:49:45.244Z,17.90
2018-03-27T11:52:13.386Z,18.33
2018-03-27T11:54:42.496Z,16.97
2018-03-27T11:57:10.669Z,15.97
2018-03-27T11:59:38.799Z,16.27
2018-03-27T12:02:06.946Z,16.03
2018-03-27T12:04:35.129Z,16.13
2018-03-27T12:07:03.514Z,16.60
2018-03-27T12:09:31.713Z,16.47
2018-03-27T12:11:59.871Z,17.30
2018-03-27T12:14:28.020Z,16.60
2018-03-27T12:16:57.043Z,17.93
2018-03-27T12:19:25.262Z,17.90
2018-03-27T12:21:54.180Z,15.97
2018-03-27T12:24:22.326Z,16.60
2018-03-27T12:26:50.512Z,16.63
2018-03-27T12:29:18.676Z,14.87
2018-03-27T12:31:46.896Z,16.57
2018-03-27T12:34:15.266Z,15.97
2018-03-27T12:36:43.402Z,14.60
2018-03-27T12:39:11.626Z,14.10
2018-03-27T12:41:39.798Z,14.53
2018-03-27T12:44:09.232Z,14.07
2018-03-27T12:46:38.557Z,14.70
2018-03-27T12:49:06.724Z,14.20
2018-03-27T12:51:34.883Z,14.77
2018-03-27T12:54:03.074Z,13.87
2018-03-27T12:56:31.453Z,14.13
2018-03-27T12:58:59.651Z,13.67
2018-03-27T13:01:27.768Z,14.10
2018-03-27T13:03:56.136Z,14.37
2018-03-27T13:06:24.279Z,13.20
2018-03-27T13:08:52.498Z,13.37
2018-03-27T13:11:22.338Z,14.67
2018-03-27T13:13:50.496Z,15.87
2018-03-27T13:16:19.458Z,12.60
2018-03-27T13:18:47.625Z,13.13
2018-03-27T13:21:15.778Z,11.83
2018-03-27T13:23:43.989Z,11.97
2018-03-27T13:26:12.962Z,12.50
2018-03-27T13:28:41.120Z,12.00
2018-03-27T13:31:09.870Z,11.43
2018-03-27T13:33:38.061Z,11.47
2018-03-27T13:36:06.252Z,11.40
2018-03-27T13:38:35.046Z,12.33
2018-03-27T13:41:03.196Z,10.77
2018-03-27T13:43:31.388Z,9.80
2018-03-27T13:45:59.572Z,7.97
2018-03-27T13:48:27.717Z,8.30
2018-03-27T13:50:55.877Z,10.70
2018-03-27T13:53:24.023Z,8.13
2018-03-27T13:55:52.209Z,6.87
2018-03-27T13:58:20.577Z,6.50
2018-03-27T14:00:49.809Z,5.53
2018-03-27T14:03:18.060Z,5.70
2018-03-27T14:05:47.164Z,5.23
2018-03-27T14:08:16.081Z,5.30
2018-03-27T14:10:44.331Z,4.47
2018-03-27T14:13:12.853Z,4.00
2018-03-27T14:15:40.995Z,4.27
2018-03-27T14:18:09.179Z,4.57
2018-03-27T14:20:37.717Z,4.63
2018-03-27T14:23:05.873Z,3.97
2018-03-27T14:25:34.036Z,4.93
2018-03-27T14:28:02.277Z,5.30
2018-03-27T14:30:30.430Z,5.43
2018-03-27T14:32:58.872Z,5.67
2018-03-27T14:35:28.620Z,5.67
2018-03-27T14:37:57.770Z,5.60
2018-03-27T14:40:25.973Z,5.23
2018-03-27T14:42:54.122Z,5.20
2018-03-27T14:45:22.244Z,5.73
2018-03-27T14:47:51.226Z,5.50
2018-03-27T14:50:20.576Z,5.57
2018-03-27T14:52:48.700Z,4.97
2018-03-27T14:55:18.109Z,5.43
2018-03-27T14:57:46.382Z,5.30
2018-03-27T15:00:15.294Z,5.23
2018-03-27T15:02:43.703Z,4.97
2018-03-27T15:05:11.850Z,4.63
2018-03-27T15:07:40.048Z,4.93
2018-03-27T15:10:08.405Z,4.30
2018-03-27T15:12:36.918Z,4.57
2018-03-27T15:15:08.902Z,3.90
2018-03-27T15:17:37.387Z,4.10
2018-03-27T15:20:05.531Z,4.20
2018-03-27T15:22:34.134Z,3.60
2018-03-27T15:25:02.717Z,3.63
2018-03-27T15:27:31.127Z,3.77
2018-03-27T15:30:00.427Z,3.57
2018-03-27T15:32:29.352Z,3.67
2018-03-27T15:34:57.652Z,3.93
2018-03-27T15:37:25.977Z,3.47
2018-03-27T15:39:55.025Z,3.83
2018-03-27T15:42:23.180Z,3.73
2018-03-27T15:44:51.335Z,3.30
2018-03-27T15:47:19.600Z,3.37
2018-03-27T15:49:48.552Z,3.50
2018-03-27T15:52:16.715Z,3.20
2018-03-27T15:54:44.854Z,3.50
2018-03-27T15:57:13.069Z,3.20
2018-03-27T15:59:41.469Z,3.10
2018-03-27T16:02:09.752Z,3.13
2018-03-27T16:04:38.717Z,3.30
2018-03-27T16:07:06.896Z,3.10
2018-03-27T16:09:35.249Z,2.97
2018-03-27T16:12:03.535Z,3.10
2018-03-27T16:14:31.722Z,3.00
2018-03-27T16:16:59.911Z,3.27
2018-03-27T16:19:28.996Z,3.00
2018-03-27T16:21:57.404Z,3.83
2018-03-27T16:24:26.447Z,3.53
2018-03-27T16:26:54.813Z,3.10
2018-03-27T16:29:22.990Z,3.43
2018-03-27T16:31:51.230Z,3.30
2018-03-27T16:34:19.446Z,4.20
2018-03-27T16:36:48.669Z,3.80
2018-03-27T16:39:16.827Z,3.60
2018-03-27T16:41:45.281Z,3.67
2018-03-27T16:44:13.632Z,3.37
2018-03-27T16:46:43.631Z,3.83
2018-03-27T16:49:12.587Z,3.67
2018-03-27T16:51:41.137Z,4.03
2018-03-27T16:54:09.289Z,3.80
2018-03-27T16:56:38.196Z,3.80
2018-03-27T16:59:07.276Z,4.20
2018-03-27T17:01:36.203Z,4.10
2018-03-27T17:04:04.362Z,4.10
2018-03-27T17:06:32.803Z,4.30
2018-03-27T17:09:00.944Z,4.37
2018-03-27T17:11:29.183Z,4.70
2018-03-27T17:13:57.382Z,4.20
2018-03-27T17:16:25.553Z,4.53
2018-03-27T17:18:53.727Z,4.60
2018-03-27T17:21:22.178Z,5.23
2018-03-27T17:23:51.218Z,4.90
2018-03-27T17:26:19.601Z,5.03
2018-03-27T17:28:47.899Z,5.50
2018-03-27T17:31:17.036Z,5.60
2018-03-27T17:33:46.178Z,6.53
2018-03-27T17:36:14.501Z,7.13
2018-03-27T17:38:43.602Z,6.50
2018-03-27T17:41:12.618Z,7.27
2018-03-27T17:43:40.789Z,7.37
2018-03-27T17:46:09.660Z,7.37
2018-03-27T17:48:37.825Z,9.30
2018-03-27T17:51:06.789Z,9.13
2018-03-27T17:53:36.160Z,9.43
2018-03-27T17:56:04.514Z,9.03
2018-03-27T17:58:32.698Z,9.40
2018-03-27T18:01:00.996Z,10.37
2018-03-27T18:03:29.273Z,10.37
2018-03-27T18:05:57.502Z,10.53
2018-03-27T18:08:26.457Z,10.90
2018-03-27T18:10:54.643Z,10.47
2018-03-27T18:13:24.603Z,11.83
2018-03-27T18:15:52.977Z,12.93
2018-03-27T18:18:21.722Z,12.77
2018-03-27T18:20:49.899Z,12.97
2018-03-27T18:23:19.131Z,13.07
2018-03-27T18:25:47.331Z,14.27
2018-03-27T18:28:15.575Z,15.00
2018-03-27T18:30:44.361Z,18.20
2018-03-27T18:33:13.285Z,16.43
2018-03-27T18:35:41.477Z,15.67
2018-03-27T18:38:09.635Z,15.27
2018-03-27T18:40:37.779Z,16.30
2018-03-27T18:43:07.685Z,17.20
2018-03-27T18:45:36.651Z,17.20
2018-03-27T18:48:04.812Z,17.53
2018-03-27T18:50:33.005Z,17.13
2018-03-27T18:53:01.160Z,18.90
2018-03-27T18:55:29.304Z,17.33
2018-03-27T18:58:01.681Z,18.07
2018-03-27T19:00:30.128Z,20.10
2018-03-27T19:02:59.051Z,20.67
2018-03-27T19:05:27.208Z,21.40
2018-03-27T19:07:55.356Z,21.87
2018-03-27T19:10:24.583Z,21.87
2018-03-27T19:12:52.839Z,24.13
2018-03-27T19:15:21.873Z,24.70
2018-03-27T19:17:50.325Z,25.37
2018-03-27T19:20:19.055Z,26.07
2018-03-27T19:22:47.193Z,26.73
2018-03-27T19:25:15.367Z,26.57
2018-03-27T19:27:43.734Z,27.97
2018-03-27T19:30:12.000Z,27.33
2018-03-27T19:32:40.426Z,26.30
2018-03-27T19:35:08.789Z,28.60
2018-03-27T19:37:37.029Z,26.67
2018-03-27T19:40:06.180Z,28.47
2018-03-27T19:42:34.922Z,29.65
2018-03-27T19:45:03.288Z,26.97
2018-03-27T19:47:32.211Z,27.67
2018-03-27T19:50:00.503Z,28.37
2018-03-27T19:52:28.769Z,28.50
2018-03-27T19:54:57.726Z,28.20
2018-03-27T19:57:25.977Z,26.37
2018-03-27T19:59:54.193Z,30.80
2018-03-27T20:02:22.510Z,31.50
2018-03-27T20:04:51.451Z,30.50
2018-03-27T20:07:20.389Z,30.30
2018-03-27T20:09:48.579Z,30.67
2018-03-27T20:12:17.090Z,32.10
2018-03-27T20:14:46.703Z,31.73
2018-03-27T20:17:15.091Z,30.60
2018-03-27T20:19:43.689Z,31.17
2018-03-27T20:22:12.503Z,30.57
2018-03-27T20:24:40.800Z,32.23
2018-03-27T20:27:08.973Z,33.00
2018-03-27T20:29:38.834Z,32.33
2018-03-27T20:32:07.099Z,32.27
2018-03-27T20:34:35.627Z,31.47
2018-03-27T20:37:03.958Z,34.13
2018-03-27T20:39:32.896Z,32.17
2018-03-27T20:42:01.693Z,34.13
2018-03-27T20:44:29.922Z,32.97
2018-03-27T20:46:58.081Z,33.87
2018-03-27T20:49:26.669Z,33.43
2018-03-27T20:51:55.694Z,35.60
2018-03-27T20:54:23.848Z,35.63
2018-03-27T20:56:52.008Z,35.97
2018-03-27T20:59:21.258Z,35.78
2018-03-27T21:01:49.499Z,36.60
2018-03-27T21:04:17.854Z,35.30
2018-03-27T21:06:46.785Z,36.80
2018-03-27T21:09:14.941Z,37.27
2018-03-27T21:11:43.247Z,36.83
2018-03-27T21:14:11.616Z,36.60
2018-03-27T21:16:39.759Z,37.33
2018-03-27T21:19:08.752Z,38.67
2018-03-27T21:21:37.661Z,37.23
2018-03-27T21:24:05.845Z,37.93
2018-03-27T21:26:34.008Z,38.90
2018-03-27T21:29:02.163Z,38.93
2018-03-27T21:31:30.363Z,39.47
2018-03-27T21:33:59.660Z,38.93
2018-03-27T21:36:27.804Z,37.87
2018-03-27T21:38:56.931Z,38.93
2018-03-27T21:41:25.101Z,38.63
2018-03-27T21:43:53.439Z,38.17
2018-03-27T21:46:22.393Z,38.23
2018-03-27T21:48:50.562Z,39.40
2018-03-27T21:51:18.811Z,38.17
2018-03-27T21:53:48.695Z,39.87
2018-03-27T21:56:17.280Z,39.43
2018-03-27T21:58:46.210Z,41.00
2018-03-27T22:01:15.295Z,40.73
2018-03-27T22:03:43.534Z,40.17
2018-03-27T22:06:11.827Z,40.27
2018-03-27T22:08:40.889Z,40.73
2018-03-27T22:11:09.198Z,38.27
2018-03-27T22:13:38.946Z,38.97
2018-03-27T22:16:07.101Z,39.07
2018-03-27T22:18:35.981Z,40.33
2018-03-27T22:21:06.173Z,40.93
2018-03-27T22:23:34.332Z,39.03
2018-03-27T22:26:02.711Z,40.27
2018-03-27T22:28:30.866Z,41.10
2018-03-27T22:30:59.237Z,41.97
2018-03-27T22:33:27.411Z,40.93
2018-03-27T22:35:55.725Z,39.50
2018-03-27T22:38:23.900Z,38.30
2018-03-27T22:40:52.112Z,38.63
2018-03-27T22:43:20.373Z,39.50
2018-03-27T22:45:49.575Z,41.00
2018-03-27T22:48:19.284Z,37.53
2018-03-27T22:50:48.529Z,39.77
2018-03-27T22:53:17.618Z,38.07
2018-03-27T22:55:45.964Z,34.67
2018-03-27T22:58:14.886Z,34.63
2018-03-27T23:00:47.075Z,34.20
2018-03-27T23:03:15.265Z,35.07
2018-03-27T23:05:43.506Z,33.23
2018-03-27T23:08:11.652Z,31.53
2018-03-27T23:10:40.841Z,31.83
2018-03-27T23:13:09.869Z,31.77
2018-03-27T23:15:38.348Z,29.27
2018-03-27T23:18:06.622Z,29.73
2018-03-27T23:20:34.980Z,29.17
2018-03-27T23:23:03.948Z,30.83
2018-03-27T23:25:32.172Z,28.33
2018-03-27T23:28:00.940Z,27.47
2018-03-27T23:30:29.096Z,27.07
2018-03-27T23:32:58.247Z,27.60
2018-03-27T23:35:27.058Z,26.83
2018-03-27T23:37:55.231Z,26.70
2018-03-27T23:40:23.550Z,26.60
2018-03-27T23:42:51.687Z,25.83
2018-03-27T23:45:20.126Z,25.13
2018-03-27T23:47:48.301Z,24.80
2018-03-27T23:50:16.592Z,25.53
2018-03-27T23:52:44.758Z,26.10
2018-03-27T23:55:13.117Z,24.73
2018-03-27T23:57:41.292Z,24.23
